Time;durP1;ratioP1;P1;durP2;ratioP2;P2;SDS_P1;SDS_P2;PMS_P1;PMS_P2;Temp;Humidity;BMP_temperature;BMP_pressure;BME280_temperature;BME280_humidity;BME280_pressure;Samples;Min_cycle;Max_cycle;Signal;HPM_P1;HPM_P2
2024/03/31 00:02:06;;;;;;;21.45;6.60;;;;;;;;;;4982487;28;20504;-81
2024/03/31 00:04:31;;;;;;;28.48;4.82;;;;;;;;;;4965244;28;20246;-81
2024/03/31 00:06:57;;;;;;;23.85;4.75;;;;;;;;;;4964397;28;20508;-81
2024/03/31 00:09:23;;;;;;;16.77;3.72;;;;;;;;;;4966586;28;20054;-80
2024/03/31 00:11:48;;;;;;;23.73;5.07;;;;;;;;;;4981807;28;20050;-81
2024/03/31 00:14:14;;;;;;;15.02;4.20;;;;;;;;;;4985699;28;20086;-81
2024/03/31 00:16:39;;;;;;;16.98;3.67;;;;;;;;;;5020180;28;20241;-81
2024/03/31 00:19:05;;;;;;;16.88;4.60;;;;;;;;;;5015784;28;20030;-81
2024/03/31 00:21:30;;;;;;;14.27;3.80;;;;;;;;;;5008228;28;20115;-81
2024/03/31 00:23:56;;;;;;;19.42;4.53;;;;;;;;;;4999909;28;20046;-81
2024/03/31 00:26:24;;;;;;;19.48;3.72;;;;;;;;;;5001955;28;20090;-81
2024/03/31 00:28:49;;;;;;;14.70;4.72;;;;;;;;;;5018830;28;20064;-82
2024/03/31 00:31:15;;;;;;;12.98;4.22;;;;;;;;;;4983614;28;20042;-82
2024/03/31 00:33:41;;;;;;;17.73;4.50;;;;;;;;;;5004594;28;20060;-82
2024/03/31 00:36:09;;;;;;;14.15;4.10;;;;;;;;;;4966317;28;20062;-82
2024/03/31 00:38:35;;;;;;;22.90;5.32;;;;;;;;;;4963952;28;20057;-82
2024/03/31 00:41:00;;;;;;;15.45;4.60;;;;;;;;;;4961415;28;20046;-82
2024/03/31 00:43:26;;;;;;;20.08;3.97;;;;;;;;;;4979769;28;20109;-80
2024/03/31 00:45:51;;;;;;;12.30;2.53;;;;;;;;;;4987875;28;20054;-82
2024/03/31 00:48:17;;;;;;;13.30;3.38;;;;;;;;;;4978708;28;20125;-83
2024/03/31 00:50:42;;;;;;;16.55;3.90;;;;;;;;;;4992124;28;20058;-83
2024/03/31 00:53:08;;;;;;;22.33;4.60;;;;;;;;;;4977423;28;20596;-82
2024/03/31 00:55:33;;;;;;;10.70;3.15;;;;;;;;;;4975594;28;20046;-83
2024/03/31 00:57:59;;;;;;;16.85;3.83;;;;;;;;;;4978728;28;20046;-81
2024/03/31 01:00:25;;;;;;;13.63;4.35;;;;;;;;;;4961239;28;20053;-81
2024/03/31 01:02:50;;;;;;;19.50;4.38;;;;;;;;;;4996438;28;20077;-81
2024/03/31 01:05:16;;;;;;;15.93;5.05;;;;;;;;;;4999567;28;20050;-81
2024/03/31 01:07:42;;;;;;;17.88;4.80;;;;;;;;;;4979960;28;20823;-81
2024/03/31 01:10:10;;;;;;;21.67;5.45;;;;;;;;;;5001227;28;20057;-80
2024/03/31 01:12:35;;;;;;;23.88;5.05;;;;;;;;;;4998202;28;20047;-80
2024/03/31 01:15:02;;;;;;;12.73;4.78;;;;;;;;;;4959515;28;20571;-81
2024/03/31 01:17:27;;;;;;;20.27;5.53;;;;;;;;;;4985460;28;20054;-81
2024/03/31 01:19:53;;;;;;;17.80;5.45;;;;;;;;;;5008049;28;20046;-82
2024/03/31 01:22:19;;;;;;;17.45;4.60;;;;;;;;;;5007231;28;20468;-81
2024/03/31 01:24:44;;;;;;;16.90;4.55;;;;;;;;;;4994187;28;20475;-80
2024/03/31 01:27:10;;;;;;;16.45;4.53;;;;;;;;;;4978264;28;20060;-81
2024/03/31 01:29:35;;;;;;;13.18;4.03;;;;;;;;;;4978797;28;20100;-82
2024/03/31 01:32:01;;;;;;;13.40;4.03;;;;;;;;;;5001296;28;20039;-80
2024/03/31 01:34:27;;;;;;;14.65;4.03;;;;;;;;;;4976096;28;20064;-80
2024/03/31 01:36:52;;;;;;;21.58;4.38;;;;;;;;;;5002860;28;20569;-82
2024/03/31 01:39:18;;;;;;;17.90;3.83;;;;;;;;;;4978572;28;20467;-81
2024/03/31 01:41:46;;;;;;;15.25;4.20;;;;;;;;;;4971816;28;20526;-81
2024/03/31 01:44:11;;;;;;;15.13;4.25;;;;;;;;;;4987873;28;20054;-81
2024/03/31 01:46:37;;;;;;;13.48;4.03;;;;;;;;;;5002830;28;20768;-81
2024/03/31 01:49:02;;;;;;;16.63;4.18;;;;;;;;;;4968178;28;20061;-82
2024/03/31 01:51:28;;;;;;;14.30;3.95;;;;;;;;;;4997102;28;20061;-82
2024/03/31 01:53:53;;;;;;;14.13;3.92;;;;;;;;;;5000688;28;20485;-81
2024/03/31 01:56:19;;;;;;;16.92;4.75;;;;;;;;;;4977548;28;20156;-80
2024/03/31 01:58:44;;;;;;;13.60;4.40;;;;;;;;;;5000848;28;20058;-81
2024/03/31 02:01:10;;;;;;;17.08;5.15;;;;;;;;;;4984972;28;20505;-81
2024/03/31 02:03:35;;;;;;;14.82;4.78;;;;;;;;;;5000609;28;20054;-81
2024/03/31 02:06:07;;;;;;;16.55;5.18;;;;;;;;;;5007117;28;20113;-81
2024/03/31 02:08:33;;;;;;;24.23;4.90;;;;;;;;;;4992391;28;20112;-81
2024/03/31 02:10:59;;;;;;;17.17;4.47;;;;;;;;;;4970833;28;20051;-81
2024/03/31 02:13:24;;;;;;;19.25;5.45;;;;;;;;;;4982574;28;20081;-81
2024/03/31 02:15:50;;;;;;;20.23;4.53;;;;;;;;;;5003942;28;20425;-81
2024/03/31 02:18:15;;;;;;;18.00;4.60;;;;;;;;;;4985823;28;20117;-81
2024/03/31 02:20:41;;;;;;;25.52;5.07;;;;;;;;;;4987277;28;20046;-81
2024/03/31 02:23:07;;;;;;;14.98;4.20;;;;;;;;;;4986532;28;20120;-82
2024/03/31 02:25:33;;;;;;;15.43;4.30;;;;;;;;;;4975133;28;20054;-82
2024/03/31 02:27:59;;;;;;;13.77;4.68;;;;;;;;;;4995707;28;20052;-82
2024/03/31 02:30:24;;;;;;;19.45;4.13;;;;;;;;;;4970990;28;20050;-82
2024/03/31 02:32:50;;;;;;;11.30;3.28;;;;;;;;;;4967858;28;20464;-81
2024/03/31 02:35:16;;;;;;;17.10;3.80;;;;;;;;;;4990038;28;20054;-82
2024/03/31 02:37:41;;;;;;;19.13;4.53;;;;;;;;;;4984603;28;20046;-81
2024/03/31 02:40:07;;;;;;;19.00;4.15;;;;;;;;;;4983317;28;20156;-82
2024/03/31 02:42:33;;;;;;;17.88;3.63;;;;;;;;;;4986898;28;20058;-83
2024/03/31 02:44:58;;;;;;;14.02;3.25;;;;;;;;;;4982326;28;20415;-83
2024/03/31 02:47:24;;;;;;;15.02;3.55;;;;;;;;;;4986557;28;20062;-83
2024/03/31 02:49:50;;;;;;;14.23;3.42;;;;;;;;;;4999883;28;20042;-83
2024/03/31 02:52:16;;;;;;;19.50;3.72;;;;;;;;;;4975139;28;20092;-82
2024/03/31 02:54:41;;;;;;;15.63;4.13;;;;;;;;;;4977254;28;20116;-82
2024/03/31 02:57:07;;;;;;;12.45;3.40;;;;;;;;;;5002426;28;20045;-82
2024/03/31 02:59:32;;;;;;;19.15;4.82;;;;;;;;;;4978024;28;20125;-82
2024/03/31 03:01:58;;;;;;;16.13;3.33;;;;;;;;;;4998928;28;20054;-82
2024/03/31 03:04:23;;;;;;;14.35;4.60;;;;;;;;;;4993578;28;20051;-82
2024/03/31 03:06:49;;;;;;;16.83;3.70;;;;;;;;;;4984714;28;20053;-84
2024/03/31 03:09:15;;;;;;;16.02;3.55;;;;;;;;;;5001580;28;20038;-84
2024/03/31 03:11:40;;;;;;;10.27;2.95;;;;;;;;;;5005325;28;20030;-84
2024/03/31 03:14:06;;;;;;;12.40;4.68;;;;;;;;;;4989253;28;20034;-84
2024/03/31 03:16:31;;;;;;;12.48;3.70;;;;;;;;;;5018880;28;20041;-84
2024/03/31 03:18:57;;;;;;;16.88;4.28;;;;;;;;;;5015985;28;20045;-84
2024/03/31 03:21:22;;;;;;;11.93;3.80;;;;;;;;;;5021792;28;20081;-84
2024/03/31 03:23:48;;;;;;;19.60;4.15;;;;;;;;;;5021323;28;20061;-84
2024/03/31 03:26:13;;;;;;;25.33;4.47;;;;;;;;;;4988916;28;20101;-85
2024/03/31 03:28:40;;;;;;;19.00;4.70;;;;;;;;;;5005055;28;20041;-85
2024/03/31 03:31:06;;;;;;;11.77;3.17;;;;;;;;;;5003868;28;20035;-83
2024/03/31 03:33:32;;;;;;;19.23;4.28;;;;;;;;;;5004257;28;20046;-85
2024/03/31 03:36:01;;;;;;;13.60;2.67;;;;;;;;;;5013276;28;20038;-84
2024/03/31 03:38:27;;;;;;;14.15;3.72;;;;;;;;;;4964054;28;20413;-81
2024/03/31 03:40:53;;;;;;;15.85;3.33;;;;;;;;;;4977176;28;20108;-81
2024/03/31 03:43:18;;;;;;;15.95;4.20;;;;;;;;;;4988050;28;20132;-80
2024/03/31 03:45:44;;;;;;;15.93;4.57;;;;;;;;;;4994564;28;20078;-80
2024/03/31 03:48:09;;;;;;;12.93;3.25;;;;;;;;;;4976906;28;20057;-79
2024/03/31 03:50:36;;;;;;;20.92;4.05;;;;;;;;;;4981009;28;20050;-80
2024/03/31 03:53:01;;;;;;;11.95;3.45;;;;;;;;;;4976771;28;20047;-80
2024/03/31 03:55:27;;;;;;;15.68;3.83;;;;;;;;;;4993303;28;20061;-80
2024/03/31 03:57:52;;;;;;;16.30;3.85;;;;;;;;;;4976317;28;20058;-81
2024/03/31 04:00:18;;;;;;;15.15;3.00;;;;;;;;;;4978083;28;20057;-81
2024/03/31 04:02:43;;;;;;;10.52;3.45;;;;;;;;;;4992770;28;20117;-80
2024/03/31 04:05:09;;;;;;;16.02;4.50;;;;;;;;;;4988110;28;20077;-80
2024/03/31 04:07:34;;;;;;;16.75;4.05;;;;;;;;;;4980634;28;20116;-80
2024/03/31 04:10:00;;;;;;;15.15;3.03;;;;;;;;;;4993464;28;20075;-82
2024/03/31 04:12:25;;;;;;;13.43;3.63;;;;;;;;;;4977809;28;20509;-81
2024/03/31 04:14:51;;;;;;;16.90;3.65;;;;;;;;;;5001675;28;20515;-79
2024/03/31 04:17:17;;;;;;;12.77;3.33;;;;;;;;;;4974308;28;20046;-79
2024/03/31 04:19:42;;;;;;;9.60;3.33;;;;;;;;;;4995845;28;20058;-79
2024/03/31 04:22:08;;;;;;;20.70;4.43;;;;;;;;;;5005903;28;20058;-80
2024/03/31 04:24:33;;;;;;;19.60;4.55;;;;;;;;;;4998980;28;20054;-80
2024/03/31 04:26:59;;;;;;;16.23;3.40;;;;;;;;;;4978059;28;20058;-79
2024/03/31 04:29:24;;;;;;;14.32;3.50;;;;;;;;;;4990846;28;20460;-79
2024/03/31 04:31:53;;;;;;;21.20;4.22;;;;;;;;;;4976314;28;20441;-80
2024/03/31 04:34:19;;;;;;;12.63;3.72;;;;;;;;;;4977462;28;20046;-80
2024/03/31 04:36:45;;;;;;;10.40;4.03;;;;;;;;;;4994071;28;20051;-80
2024/03/31 04:39:10;;;;;;;11.82;3.30;;;;;;;;;;4977271;28;20417;-81
2024/03/31 04:41:36;;;;;;;14.63;3.20;;;;;;;;;;4977590;28;20524;-80
2024/03/31 04:44:02;;;;;;;11.10;3.45;;;;;;;;;;4955232;28;20543;-82
2024/03/31 04:46:27;;;;;;;9.52;3.08;;;;;;;;;;4978496;28;20536;-80
2024/03/31 04:48:53;;;;;;;16.67;3.47;;;;;;;;;;4974978;28;20050;-77
2024/03/31 04:51:21;;;;;;;12.82;3.90;;;;;;;;;;4971756;28;20575;-77
2024/03/31 04:53:47;;;;;;;18.63;4.32;;;;;;;;;;4988245;28;20058;-79
2024/03/31 04:56:12;;;;;;;11.43;4.20;;;;;;;;;;4958761;28;20061;-79
2024/03/31 04:58:38;;;;;;;16.90;3.78;;;;;;;;;;4992693;28;20505;-79
2024/03/31 05:01:04;;;;;;;10.77;3.70;;;;;;;;;;5000051;28;20181;-80
2024/03/31 05:03:30;;;;;;;12.73;4.13;;;;;;;;;;4989179;28;20069;-80
2024/03/31 05:05:55;;;;;;;14.10;3.40;;;;;;;;;;4959478;28;20077;-80
2024/03/31 05:08:21;;;;;;;15.10;4.07;;;;;;;;;;4988393;28;20050;-80
2024/03/31 05:10:59;;;;;;;13.32;3.67;;;;;;;;;;4994406;28;20046;-80
2024/03/31 05:13:27;;;;;;;8.45;2.90;;;;;;;;;;4961105;28;20046;-79
2024/03/31 05:16:04;;;;;;;11.38;3.78;;;;;;;;;;4960460;28;20532;-82
2024/03/31 05:18:29;;;;;;;16.52;3.85;;;;;;;;;;4960462;28;20058;-83
2024/03/31 05:20:58;;;;;;;14.40;4.07;;;;;;;;;;4960807;28;20046;-80
2024/03/31 05:23:24;;;;;;;21.25;4.55;;;;;;;;;;4977162;28;20058;-80
2024/03/31 05:25:50;;;;;;;13.68;3.78;;;;;;;;;;4991971;28;20484;-80
2024/03/31 05:28:16;;;;;;;15.63;3.53;;;;;;;;;;4992524;28;20046;-80
2024/03/31 05:30:41;;;;;;;18.90;5.07;;;;;;;;;;4992480;28;20061;-80
2024/03/31 05:33:07;;;;;;;20.02;4.53;;;;;;;;;;4992087;28;20074;-80
2024/03/31 05:35:32;;;;;;;14.65;4.30;;;;;;;;;;4979492;28;20455;-81
2024/03/31 05:37:58;;;;;;;13.82;3.85;;;;;;;;;;4979077;28;20096;-80
2024/03/31 05:40:24;;;;;;;10.90;3.78;;;;;;;;;;4997841;28;20112;-82
2024/03/31 05:42:50;;;;;;;17.00;4.95;;;;;;;;;;4982417;28;20070;-82
2024/03/31 05:45:15;;;;;;;21.63;4.78;;;;;;;;;;4962324;28;20054;-82
2024/03/31 05:47:41;;;;;;;9.45;3.42;;;;;;;;;;4997325;28;20054;-82
2024/03/31 05:50:06;;;;;;;13.52;4.03;;;;;;;;;;4979290;28;20050;-83
2024/03/31 05:52:32;;;;;;;19.15;3.88;;;;;;;;;;4981252;28;20058;-83
2024/03/31 05:54:58;;;;;;;20.02;5.10;;;;;;;;;;4983944;28;20050;-83
2024/03/31 05:57:24;;;;;;;19.27;4.28;;;;;;;;;;4979383;28;20054;-82
2024/03/31 05:59:49;;;;;;;14.98;4.22;;;;;;;;;;4962043;28;20066;-82
2024/03/31 06:02:15;;;;;;;16.63;4.22;;;;;;;;;;4981430;28;20056;-82
2024/03/31 06:04:40;;;;;;;21.55;5.47;;;;;;;;;;4981116;28;20134;-82
2024/03/31 06:07:06;;;;;;;16.33;3.42;;;;;;;;;;4989991;28;20084;-80
2024/03/31 06:09:31;;;;;;;18.27;4.20;;;;;;;;;;4960583;28;20058;-81
2024/03/31 06:11:57;;;;;;;14.13;4.15;;;;;;;;;;4962968;28;20082;-81
2024/03/31 06:14:22;;;;;;;15.90;4.60;;;;;;;;;;4979634;28;20552;-82
2024/03/31 06:16:48;;;;;;;15.32;4.00;;;;;;;;;;4977834;28;20153;-79
2024/03/31 06:19:13;;;;;;;19.75;4.43;;;;;;;;;;4972365;28;20046;-78
2024/03/31 06:21:39;;;;;;;17.02;4.38;;;;;;;;;;5002867;28;20097;-78
2024/03/31 06:24:05;;;;;;;16.17;4.60;;;;;;;;;;5010060;28;20041;-79
2024/03/31 06:26:30;;;;;;;12.23;3.65;;;;;;;;;;5001938;28;20035;-80
2024/03/31 06:29:09;;;;;;;12.38;3.83;;;;;;;;;;4978055;28;20046;-82
2024/03/31 06:31:35;;;;;;;19.33;4.78;;;;;;;;;;5017868;28;20058;-77
2024/03/31 06:34:00;;;;;;;13.63;3.88;;;;;;;;;;4969015;28;20499;-77
2024/03/31 06:36:26;;;;;;;18.83;4.07;;;;;;;;;;4957528;28;20061;-77
2024/03/31 06:38:51;;;;;;;8.93;4.15;;;;;;;;;;4973506;28;20058;-76
2024/03/31 06:41:18;;;;;;;17.13;3.63;;;;;;;;;;4970912;28;20154;-75
2024/03/31 06:43:43;;;;;;;18.50;4.20;;;;;;;;;;4975262;28;20054;-77
2024/03/31 06:46:09;;;;;;;16.38;4.75;;;;;;;;;;4993992;28;20051;-78
2024/03/31 06:48:34;;;;;;;9.23;3.80;;;;;;;;;;4998850;28;20046;-78
2024/03/31 06:51:00;;;;;;;17.98;4.75;;;;;;;;;;4973022;28;20555;-77
2024/03/31 06:53:25;;;;;;;11.73;4.13;;;;;;;;;;4957277;28;20137;-78
2024/03/31 06:55:51;;;;;;;18.80;4.95;;;;;;;;;;4970163;28;20134;-78
2024/03/31 06:58:16;;;;;;;15.55;4.05;;;;;;;;;;4976511;28;20055;-78
2024/03/31 07:00:42;;;;;;;16.80;4.38;;;;;;;;;;4989203;28;20145;-78
2024/03/31 07:03:07;;;;;;;12.98;4.10;;;;;;;;;;4962435;28;20054;-78
2024/03/31 07:05:33;;;;;;;12.93;4.43;;;;;;;;;;4971925;28;20066;-78
2024/03/31 07:07:59;;;;;;;14.75;4.43;;;;;;;;;;4957294;28;20106;-77
2024/03/31 07:10:24;;;;;;;16.13;3.72;;;;;;;;;;4956191;28;20050;-78
2024/03/31 07:12:50;;;;;;;15.52;5.10;;;;;;;;;;4956249;28;20141;-79
2024/03/31 07:15:15;;;;;;;16.80;4.53;;;;;;;;;;4985160;28;20520;-78
2024/03/31 07:17:42;;;;;;;13.20;4.43;;;;;;;;;;4977660;28;20511;-78
2024/03/31 07:20:08;;;;;;;14.02;4.78;;;;;;;;;;4986870;28;20805;-79
2024/03/31 07:22:33;;;;;;;17.60;4.47;;;;;;;;;;4984497;28;20133;-78
2024/03/31 07:24:59;;;;;;;19.60;4.95;;;;;;;;;;4994637;28;20054;-79
2024/03/31 07:27:24;;;;;;;14.65;4.03;;;;;;;;;;4979592;28;20050;-78
2024/03/31 07:29:50;;;;;;;14.02;3.95;;;;;;;;;;4985331;28;20050;-78
2024/03/31 07:32:15;;;;;;;14.85;3.63;;;;;;;;;;4968315;28;20055;-78
2024/03/31 07:34:41;;;;;;;22.30;4.82;;;;;;;;;;4980978;28;20061;-78
2024/03/31 07:37:07;;;;;;;16.85;4.00;;;;;;;;;;4991008;28;20038;-78
2024/03/31 07:39:32;;;;;;;21.98;4.63;;;;;;;;;;5004740;28;20089;-78
2024/03/31 07:41:58;;;;;;;16.90;3.90;;;;;;;;;;4960512;28;20584;-80
2024/03/31 07:44:23;;;;;;;10.40;4.40;;;;;;;;;;4998857;28;20054;-78
2024/03/31 07:46:50;;;;;;;17.15;4.30;;;;;;;;;;4985026;28;20114;-79
2024/03/31 07:49:16;;;;;;;11.73;3.20;;;;;;;;;;4992487;28;20047;-74
2024/03/31 07:51:42;;;;;;;21.67;4.95;;;;;;;;;;4967954;28;20419;-75
2024/03/31 07:54:07;;;;;;;11.68;3.80;;;;;;;;;;4976396;28;20129;-74
2024/03/31 07:56:33;;;;;;;31.02;3.65;;;;;;;;;;4983102;28;20068;-74
2024/03/31 07:58:59;;;;;;;12.55;2.85;;;;;;;;;;4976567;28;20504;-75
2024/03/31 08:01:25;;;;;;;16.33;3.15;;;;;;;;;;4979422;28;20050;-74
2024/03/31 08:03:50;;;;;;;12.27;3.05;;;;;;;;;;4972183;28;20081;-74
2024/03/31 08:06:16;;;;;;;16.38;3.40;;;;;;;;;;4979042;28;20060;-75
2024/03/31 08:08:42;;;;;;;18.15;3.50;;;;;;;;;;4960919;28;20105;-75
2024/03/31 08:11:07;;;;;;;9.13;2.75;;;;;;;;;;4983661;28;20115;-75
2024/03/31 08:13:33;;;;;;;12.32;2.80;;;;;;;;;;4960850;28;20057;-75
2024/03/31 08:15:59;;;;;;;9.02;2.63;;;;;;;;;;4976370;28;20050;-75
2024/03/31 08:18:24;;;;;;;18.70;4.07;;;;;;;;;;4980281;28;20495;-75
2024/03/31 08:20:50;;;;;;;15.63;2.72;;;;;;;;;;4959658;28;20049;-75
2024/03/31 08:23:15;;;;;;;16.02;3.15;;;;;;;;;;4989172;28;20054;-75
2024/03/31 08:25:41;;;;;;;12.88;2.83;;;;;;;;;;4989448;28;20104;-75
2024/03/31 08:28:07;;;;;;;12.50;2.95;;;;;;;;;;4978499;28;20046;-75
2024/03/31 08:30:32;;;;;;;16.08;3.03;;;;;;;;;;4977592;28;20287;-75
2024/03/31 08:32:58;;;;;;;11.50;3.17;;;;;;;;;;4977514;28;20050;-75
2024/03/31 08:35:24;;;;;;;14.05;2.42;;;;;;;;;;5000641;28;20406;-76
2024/03/31 08:37:50;;;;;;;11.25;2.72;;;;;;;;;;4996817;28;20066;-75
2024/03/31 08:40:16;;;;;;;10.43;2.30;;;;;;;;;;4972618;28;20076;-75
2024/03/31 08:42:41;;;;;;;8.98;2.05;;;;;;;;;;5008190;28;20050;-75
2024/03/31 08:45:07;;;;;;;14.45;3.33;;;;;;;;;;4981028;28;20054;-74
2024/03/31 08:47:33;;;;;;;13.23;2.67;;;;;;;;;;4965934;28;20058;-74
2024/03/31 08:49:59;;;;;;;17.73;3.22;;;;;;;;;;4996460;28;20562;-74
2024/03/31 08:52:27;;;;;;;8.65;2.55;;;;;;;;;;4999482;28;20046;-76
2024/03/31 08:54:56;;;;;;;12.00;3.70;;;;;;;;;;4981507;28;20050;-72
2024/03/31 08:57:22;;;;;;;12.93;2.58;;;;;;;;;;4995644;28;20042;-75
2024/03/31 08:59:49;;;;;;;13.88;2.97;;;;;;;;;;5001929;28;20101;-74
2024/03/31 09:02:21;;;;;;;11.27;2.50;;;;;;;;;;4998886;28;20061;-74
2024/03/31 09:04:46;;;;;;;13.45;2.42;;;;;;;;;;4973805;28;20053;-74
2024/03/31 09:07:12;;;;;;;16.33;2.83;;;;;;;;;;4995731;28;20058;-74
2024/03/31 09:09:41;;;;;;;13.85;2.50;;;;;;;;;;4999223;28;20129;-73
2024/03/31 09:12:07;;;;;;;10.02;2.05;;;;;;;;;;4994591;28;20049;-74
2024/03/31 09:14:33;;;;;;;22.42;2.58;;;;;;;;;;4981370;28;20068;-74
2024/03/31 09:16:59;;;;;;;14.18;2.65;;;;;;;;;;5000289;28;20045;-74
2024/03/31 09:19:24;;;;;;;9.73;2.25;;;;;;;;;;4952627;28;20064;-74
2024/03/31 09:21:50;;;;;;;10.05;2.30;;;;;;;;;;4993617;28;20521;-74
2024/03/31 09:24:16;;;;;;;18.48;3.05;;;;;;;;;;4957635;28;20108;-74
2024/03/31 09:26:42;;;;;;;11.80;2.50;;;;;;;;;;4992654;28;20076;-75
2024/03/31 09:29:08;;;;;;;13.15;2.50;;;;;;;;;;4981356;28;20062;-74
2024/03/31 09:31:34;;;;;;;8.90;2.40;;;;;;;;;;4982668;28;20107;-75
2024/03/31 09:33:59;;;;;;;12.73;2.22;;;;;;;;;;4997775;28;20081;-74
2024/03/31 09:36:25;;;;;;;14.02;2.72;;;;;;;;;;4996775;28;20670;-74
2024/03/31 09:38:51;;;;;;;12.55;1.83;;;;;;;;;;4995696;28;20429;-75
2024/03/31 09:41:17;;;;;;;15.70;3.13;;;;;;;;;;4973875;28;20053;-74
2024/03/31 09:43:43;;;;;;;15.85;3.22;;;;;;;;;;4994400;28;20050;-74
2024/03/31 09:46:09;;;;;;;18.63;2.97;;;;;;;;;;4961163;28;20047;-74
2024/03/31 09:48:35;;;;;;;12.20;2.70;;;;;;;;;;5000761;28;20057;-74
2024/03/31 09:51:02;;;;;;;11.43;2.75;;;;;;;;;;4997861;28;20416;-74
2024/03/31 09:53:28;;;;;;;12.95;2.92;;;;;;;;;;4997689;28;20062;-74
2024/03/31 09:55:56;;;;;;;12.18;2.63;;;;;;;;;;4943545;28;20058;-74
2024/03/31 09:58:21;;;;;;;13.85;2.35;;;;;;;;;;4958398;28;20050;-73
2024/03/31 10:00:48;;;;;;;14.23;2.85;;;;;;;;;;4986920;28;20606;-74
2024/03/31 10:03:24;;;;;;;9.68;1.80;;;;;;;;;;4980710;28;20093;-75
2024/03/31 10:05:50;;;;;;;14.27;1.75;;;;;;;;;;4979065;28;20525;-74
2024/03/31 10:08:16;;;;;;;9.52;1.95;;;;;;;;;;4994870;28;20512;-75
2024/03/31 10:10:42;;;;;;;13.75;2.28;;;;;;;;;;4956660;28;20054;-76
2024/03/31 10:13:08;;;;;;;14.18;1.80;;;;;;;;;;4959965;28;20058;-76
2024/03/31 10:15:34;;;;;;;14.35;2.67;;;;;;;;;;4949753;28;20420;-75
2024/03/31 10:18:02;;;;;;;25.67;2.28;;;;;;;;;;4980955;28;20538;-76
2024/03/31 10:20:28;;;;;;;12.20;2.35;;;;;;;;;;5002972;28;20060;-77
2024/03/31 10:22:54;;;;;;;15.98;2.40;;;;;;;;;;4950740;28;20054;-77
2024/03/31 10:25:21;;;;;;;11.77;1.95;;;;;;;;;;4996927;28;20571;-77
2024/03/31 10:27:47;;;;;;;10.70;2.55;;;;;;;;;;4958843;28;20062;-79
2024/03/31 10:30:13;;;;;;;17.02;1.80;;;;;;;;;;4988674;28;20058;-78
2024/03/31 10:32:38;;;;;;;15.23;2.67;;;;;;;;;;4960825;28;20081;-79
2024/03/31 10:35:04;;;;;;;10.20;1.67;;;;;;;;;;4959133;28;20058;-79
2024/03/31 10:37:30;;;;;;;15.73;1.48;;;;;;;;;;4977521;28;20061;-78
2024/03/31 10:39:56;;;;;;;13.45;3.13;;;;;;;;;;4960794;28;20087;-78
2024/03/31 10:42:24;;;;;;;14.07;2.72;;;;;;;;;;4966474;28;20463;-79
2024/03/31 10:44:49;;;;;;;12.82;2.72;;;;;;;;;;4961184;28;20063;-78
2024/03/31 10:47:15;;;;;;;9.43;1.77;;;;;;;;;;4982686;28;20053;-78
2024/03/31 10:49:41;;;;;;;12.73;2.10;;;;;;;;;;4960518;28;21067;-78
2024/03/31 10:52:18;;;;;;;16.67;1.83;;;;;;;;;;4984849;28;20052;-78
2024/03/31 10:54:44;;;;;;;13.55;2.75;;;;;;;;;;4976582;28;20057;-79
2024/03/31 10:57:13;;;;;;;15.07;1.83;;;;;;;;;;5006081;28;20042;-79
2024/03/31 10:59:39;;;;;;;14.40;2.30;;;;;;;;;;4981824;28;20062;-78
2024/03/31 11:02:14;;;;;;;13.57;1.95;;;;;;;;;;5005474;28;20508;-78
2024/03/31 11:04:44;;;;;;;11.50;1.63;;;;;;;;;;4974747;28;20054;-78
2024/03/31 11:07:13;;;;;;;9.57;2.15;;;;;;;;;;5000082;28;20072;-81
2024/03/31 11:09:39;;;;;;;12.48;2.28;;;;;;;;;;4960225;28;20046;-76
2024/03/31 11:12:05;;;;;;;17.65;2.72;;;;;;;;;;4978359;28;20057;-76
2024/03/31 11:14:31;;;;;;;15.93;2.35;;;;;;;;;;4950892;28;20432;-74
2024/03/31 11:16:57;;;;;;;16.67;1.90;;;;;;;;;;4995222;28;20042;-75
2024/03/31 11:19:23;;;;;;;14.25;1.80;;;;;;;;;;4986030;28;20093;-75
2024/03/31 11:21:54;;;;;;;14.38;1.95;;;;;;;;;;4969112;28;20050;-76
2024/03/31 11:24:19;;;;;;;17.27;2.63;;;;;;;;;;5004457;28;20050;-75
2024/03/31 11:26:45;;;;;;;18.63;2.35;;;;;;;;;;4962302;28;20284;-76
2024/03/31 11:29:10;;;;;;;7.43;2.20;;;;;;;;;;5008321;28;20053;-77
2024/03/31 11:31:36;;;;;;;15.95;2.85;;;;;;;;;;4955196;28;20050;-79
2024/03/31 11:34:03;;;;;;;21.92;2.50;;;;;;;;;;4978395;28;20069;-76
2024/03/31 11:36:28;;;;;;;15.77;2.72;;;;;;;;;;4961086;28;20054;-76
2024/03/31 11:38:54;;;;;;;12.85;2.30;;;;;;;;;;4980998;28;20100;-76
2024/03/31 11:41:20;;;;;;;13.68;2.65;;;;;;;;;;4979793;28;20082;-76
2024/03/31 11:43:46;;;;;;;14.20;2.88;;;;;;;;;;5003807;28;20042;-77
2024/03/31 11:46:12;;;;;;;10.98;2.05;;;;;;;;;;4987539;28;20046;-76
2024/03/31 11:48:38;;;;;;;15.48;2.85;;;;;;;;;;4961992;28;20058;-76
2024/03/31 11:51:04;;;;;;;11.35;2.53;;;;;;;;;;5009651;28;20060;-80
2024/03/31 11:53:29;;;;;;;19.67;3.05;;;;;;;;;;4999431;28;20520;-76
2024/03/31 11:55:55;;;;;;;14.63;2.33;;;;;;;;;;4976150;28;20058;-76
2024/03/31 11:58:21;;;;;;;11.25;1.60;;;;;;;;;;5003721;28;20061;-77
2024/03/31 12:00:53;;;;;;;9.43;1.50;;;;;;;;;;4989074;28;20419;-77
2024/03/31 12:03:19;;;;;;;10.32;1.55;;;;;;;;;;4978250;28;20083;-77
2024/03/31 12:05:45;;;;;;;9.00;1.70;;;;;;;;;;4981871;28;20054;-77
2024/03/31 12:08:10;;;;;;;10.30;1.80;;;;;;;;;;4983963;28;20496;-77
2024/03/31 12:10:36;;;;;;;6.90;1.33;;;;;;;;;;4999101;28;20050;-77
2024/03/31 12:13:02;;;;;;;10.43;1.85;;;;;;;;;;5002570;28;20046;-77
2024/03/31 12:15:28;;;;;;;5.90;2.03;;;;;;;;;;5000448;28;20065;-77
2024/03/31 12:17:57;;;;;;;11.95;1.73;;;;;;;;;;4954008;28;20064;-77
2024/03/31 12:20:23;;;;;;;13.75;2.60;;;;;;;;;;4959646;28;20043;-77
2024/03/31 12:22:48;;;;;;;8.70;2.33;;;;;;;;;;4979907;28;20093;-77
2024/03/31 12:25:14;;;;;;;14.57;2.50;;;;;;;;;;4988681;28;20106;-77
2024/03/31 12:27:39;;;;;;;13.13;2.15;;;;;;;;;;4955848;28;20519;-77
2024/03/31 12:30:05;;;;;;;15.70;3.25;;;;;;;;;;5003476;28;20520;-77
2024/03/31 12:32:31;;;;;;;13.68;1.92;;;;;;;;;;4964156;28;20492;-77
2024/03/31 12:34:56;;;;;;;11.10;2.03;;;;;;;;;;4975528;28;20054;-77
2024/03/31 12:37:22;;;;;;;16.02;1.85;;;;;;;;;;4953217;28;20042;-77
2024/03/31 12:39:48;;;;;;;9.95;2.28;;;;;;;;;;4949502;28;20066;-77
2024/03/31 12:42:14;;;;;;;9.93;1.48;;;;;;;;;;4972248;28;20062;-76
2024/03/31 12:44:39;;;;;;;17.65;3.08;;;;;;;;;;5008092;28;20042;-76
2024/03/31 12:47:05;;;;;;;17.77;2.63;;;;;;;;;;5000410;28;20054;-77
2024/03/31 12:49:31;;;;;;;13.20;2.15;;;;;;;;;;4983694;28;20061;-77
2024/03/31 12:51:57;;;;;;;13.73;1.92;;;;;;;;;;4975760;28;20092;-77
2024/03/31 12:54:23;;;;;;;13.60;2.92;;;;;;;;;;4960373;28;20042;-77
2024/03/31 12:56:49;;;;;;;12.82;1.67;;;;;;;;;;4984064;28;20057;-77
2024/03/31 12:59:14;;;;;;;12.25;1.98;;;;;;;;;;5001617;28;20054;-77
2024/03/31 13:01:40;;;;;;;13.18;1.90;;;;;;;;;;4980525;28;20118;-78
2024/03/31 13:04:05;;;;;;;7.97;1.60;;;;;;;;;;4995624;28;20133;-77
2024/03/31 13:06:31;;;;;;;11.95;1.85;;;;;;;;;;4984354;28;20060;-78
2024/03/31 13:08:57;;;;;;;13.98;1.88;;;;;;;;;;5005392;28;20073;-79
2024/03/31 13:11:22;;;;;;;17.95;2.17;;;;;;;;;;4970650;28;20350;-77
2024/03/31 13:13:55;;;;;;;14.82;2.28;;;;;;;;;;4984169;28;20540;-77
2024/03/31 13:16:22;;;;;;;13.77;1.73;;;;;;;;;;5001619;28;20420;-77
2024/03/31 13:18:47;;;;;;;12.95;2.33;;;;;;;;;;4998412;28;20057;-77
2024/03/31 13:21:13;;;;;;;11.52;1.70;;;;;;;;;;4981703;28;20061;-76
2024/03/31 13:23:38;;;;;;;11.95;2.47;;;;;;;;;;4959077;28;20054;-77
2024/03/31 13:26:04;;;;;;;8.80;1.75;;;;;;;;;;4988536;28;20062;-77
2024/03/31 13:28:30;;;;;;;12.40;1.98;;;;;;;;;;4987802;28;20133;-77
2024/03/31 13:30:56;;;;;;;19.85;1.85;;;;;;;;;;4995543;28;20100;-77
2024/03/31 13:33:22;;;;;;;11.77;2.22;;;;;;;;;;4998815;28;20042;-77
2024/03/31 13:35:47;;;;;;;13.95;2.15;;;;;;;;;;4971615;28;20073;-77
2024/03/31 13:38:21;;;;;;;12.32;1.98;;;;;;;;;;4988045;28;20125;-77
2024/03/31 13:40:46;;;;;;;10.05;1.92;;;;;;;;;;5014735;28;20032;-76
2024/03/31 13:43:12;;;;;;;10.63;1.73;;;;;;;;;;4985057;28;20050;-76
2024/03/31 13:45:37;;;;;;;14.50;2.47;;;;;;;;;;5009388;28;20034;-75
2024/03/31 13:48:03;;;;;;;10.45;1.88;;;;;;;;;;5014842;28;20065;-78
2024/03/31 13:50:29;;;;;;;15.25;2.00;;;;;;;;;;4976342;28;20101;-77
2024/03/31 13:52:54;;;;;;;8.45;1.60;;;;;;;;;;5005483;28;20111;-76
2024/03/31 13:55:20;;;;;;;10.75;1.40;;;;;;;;;;4969063;28;20062;-76
2024/03/31 13:57:47;;;;;;;9.35;2.22;;;;;;;;;;4976825;28;20100;-75
2024/03/31 14:00:12;;;;;;;10.40;2.05;;;;;;;;;;4999467;28;20058;-75
2024/03/31 14:02:38;;;;;;;11.40;1.60;;;;;;;;;;4997674;28;20172;-78
2024/03/31 14:05:04;;;;;;;8.02;1.20;;;;;;;;;;4992561;28;20077;-75
2024/03/31 14:07:29;;;;;;;13.18;1.77;;;;;;;;;;4994475;28;20054;-76
2024/03/31 14:09:55;;;;;;;13.05;2.10;;;;;;;;;;4970987;28;20535;-76
2024/03/31 14:12:21;;;;;;;12.52;2.00;;;;;;;;;;4958714;28;20050;-75
2024/03/31 14:14:49;;;;;;;13.77;1.85;;;;;;;;;;4997168;28;20056;-75
2024/03/31 14:17:15;;;;;;;11.00;1.55;;;;;;;;;;4960337;28;20057;-75
2024/03/31 14:19:41;;;;;;;14.93;2.88;;;;;;;;;;4994345;28;20053;-75
2024/03/31 14:22:06;;;;;;;14.15;1.83;;;;;;;;;;4958976;28;20050;-76
2024/03/31 14:24:32;;;;;;;13.90;1.95;;;;;;;;;;5002463;28;20064;-75